map of CNM home
CNM - Airport
Location
City:  Carlsbad, New Mexico, United States
Name:Cavern City Air Terminal Airport
ICAO:KCNM
IATA:CNM
FAA LID:CNM

Details
Type:Airport (Part 139 Class II)
Use:Public/Civil
Latitude:3220'15"N (32.337444)
Longitude:10415'48"W (-104.263360)
Datum:WGS 1984
Elevation:3294 ft (1004 m)
Variation:7.13E (WMM2015v2 magnetic declination)
-0.10 annual change
Runways:4
Longest:7854 × 150 ft (2394 × 45.5 m), paved

Time
Time Zone:UTC-7 (DST-6)
Local Time:

Weather
METAR:KCNM 041353Z AUTO 15003KT 10SM CLR 12/02 A2989 RMK AO2 SLP089 T01220022
TAF:KCNM 041121Z 0412/0512 25009KT P6SM SCT150
FM041900 24015G23KT P6SM SCT090 SCT150
FM050000 23008KT P6SM SCT090 SCT150

Related Locations
Nearby:
Farthest:RRG: 11281 mi / 18154 km
Plaine Corail [Sir Gatan Duval Airport (Plaine Corail Airport)], Rodrigues Island, MU

Find:

   beyond  
but within

Other Information
Maps:
NOTAMs:
Links:
Sources:

  
  • flag of United States
  • flag of New Mexico
  

Sectional Chart

Flight Planning
at skyvector.com

Satellite Image

Google Maps Satellite view

 

Copyright © 2004-2019 Karl L. Swartz. All rights reserved.
The Great Circle Mapper name and logo are trademarks of the Great Circle Mapper.
All other trademarks mentioned herein belong to their respective owners.
Please see credits for attibutions and further copyright information.

  Follow gcmap on Facebook Follow gcmap on Twitter GCmap on LinkedIn

hCard Microformat

Geo Microformat